Time;durP1;ratioP1;P1;durP2;ratioP2;P2;SDS_P1;SDS_P2;PMS_P1;PMS_P2;Temp;Humidity;BMP_temperature;BMP_pressure;BME280_temperature;BME280_humidity;BME280_pressure;Samples;Min_cycle;Max_cycle;Signal;HPM_P1;HPM_P2
2021/07/04 00:00:45;;;;;;;4.55;4.13;;;;;;;;;;361570;148;858413;-58
2021/07/04 00:01:47;;;;;;;7.35;4.32;;;;;;;;;;360686;147;857356;-59
2021/07/04 00:02:50;;;;;;;5.30;4.21;;;;;;;;;;362317;148;857456;-59
2021/07/04 00:03:52;;;;;;;5.38;4.39;;;;;;;;;;361728;147;865551;-60
2021/07/04 00:04:53;;;;;;;5.23;3.95;;;;;;;;;;360000;148;857394;-61
2021/07/04 00:05:55;;;;;;;4.45;4.02;;;;;;;;;;358872;147;859465;-59
2021/07/04 00:06:57;;;;;;;5.61;4.37;;;;;;;;;;362889;147;858685;-59
2021/07/04 00:07:58;;;;;;;8.06;4.22;;;;;;;;;;360007;148;864835;-59
2021/07/04 00:09:00;;;;;;;9.99;4.24;;;;;;;;;;360689;147;865318;-59
2021/07/04 00:10:02;;;;;;;5.24;4.06;;;;;;;;;;358116;148;857468;-59
2021/07/04 00:11:06;;;;;;;8.03;3.95;;;;;;;;;;358756;147;866655;-59
2021/07/04 00:12:08;;;;;;;8.46;4.49;;;;;;;;;;362355;147;857268;-59
2021/07/04 00:13:10;;;;;;;8.21;4.23;;;;;;;;;;359787;148;857341;-60
2021/07/04 00:14:11;;;;;;;6.42;4.04;;;;;;;;;;361355;147;857835;-59
2021/07/04 00:15:14;;;;;;;6.51;3.99;;;;;;;;;;358064;148;857739;-59
2021/07/04 00:16:16;;;;;;;4.70;3.80;;;;;;;;;;359422;148;866682;-59
2021/07/04 00:17:18;;;;;;;8.34;4.10;;;;;;;;;;362493;148;860680;-59
2021/07/04 00:18:20;;;;;;;8.48;3.99;;;;;;;;;;358063;148;865074;-59
2021/07/04 00:19:22;;;;;;;6.45;4.41;;;;;;;;;;359541;147;856674;-59
2021/07/04 00:20:24;;;;;;;8.97;4.39;;;;;;;;;;359304;148;857533;-59
2021/07/04 00:21:26;;;;;;;7.43;4.06;;;;;;;;;;358121;147;857266;-59
2021/07/04 00:22:27;;;;;;;9.56;4.02;;;;;;;;;;359492;147;857255;-60
2021/07/04 00:23:29;;;;;;;5.36;4.13;;;;;;;;;;360304;147;859306;-59
2021/07/04 00:24:30;;;;;;;5.35;4.14;;;;;;;;;;359276;148;858183;-60
2021/07/04 00:25:32;;;;;;;5.34;4.18;;;;;;;;;;359013;147;860598;-60
2021/07/04 00:26:34;;;;;;;6.04;4.02;;;;;;;;;;358884;147;859124;-59
2021/07/04 00:27:36;;;;;;;7.90;3.95;;;;;;;;;;353470;152;858617;-59
2021/07/04 00:28:37;;;;;;;4.19;3.63;;;;;;;;;;353996;147;867133;-59
2021/07/04 00:29:39;;;;;;;7.85;3.93;;;;;;;;;;361276;148;864984;-59
2021/07/04 00:30:41;;;;;;;6.96;3.67;;;;;;;;;;361692;147;857317;-59
2021/07/04 00:31:43;;;;;;;13.39;4.26;;;;;;;;;;362425;148;857379;-59
2021/07/04 00:32:44;;;;;;;6.47;4.01;;;;;;;;;;359706;147;857281;-59
2021/07/04 00:33:46;;;;;;;6.36;3.61;;;;;;;;;;361370;147;859026;-59
2021/07/04 00:34:47;;;;;;;4.82;3.53;;;;;;;;;;362192;148;864918;-60
2021/07/04 00:35:49;;;;;;;5.09;3.81;;;;;;;;;;361108;147;857326;-60
2021/07/04 00:36:51;;;;;;;5.15;3.67;;;;;;;;;;359899;148;857346;-60
2021/07/04 00:37:52;;;;;;;6.56;3.41;;;;;;;;;;362360;147;857512;-59
2021/07/04 00:38:54;;;;;;;5.19;3.79;;;;;;;;;;361219;148;857328;-59
2021/07/04 00:39:56;;;;;;;6.51;3.90;;;;;;;;;;358308;147;859422;-59
2021/07/04 00:40:57;;;;;;;5.88;3.77;;;;;;;;;;361012;148;857984;-59
2021/07/04 00:41:59;;;;;;;7.04;3.98;;;;;;;;;;357282;148;866061;-59
2021/07/04 00:43:00;;;;;;;9.84;3.82;;;;;;;;;;356934;147;858745;-59
2021/07/04 00:44:02;;;;;;;6.09;3.66;;;;;;;;;;360261;147;858640;-59
2021/07/04 00:45:11;;;;;;;5.75;3.89;;;;;;;;;;361919;147;857885;-59
2021/07/04 00:46:13;;;;;;;10.36;3.64;;;;;;;;;;359007;148;866741;-60
2021/07/04 00:47:14;;;;;;;4.19;3.61;;;;;;;;;;361575;147;858284;-59
2021/07/04 00:48:16;;;;;;;9.86;4.20;;;;;;;;;;360261;147;864883;-58
2021/07/04 00:49:18;;;;;;;7.28;3.93;;;;;;;;;;361745;148;859239;-60
2021/07/04 00:50:20;;;;;;;5.67;3.85;;;;;;;;;;359394;147;865538;-59
2021/07/04 00:51:22;;;;;;;5.90;4.16;;;;;;;;;;358750;147;858857;-60
2021/07/04 00:52:23;;;;;;;7.06;3.94;;;;;;;;;;354763;152;859973;-60
2021/07/04 00:53:25;;;;;;;5.94;3.86;;;;;;;;;;362338;148;857304;-60
2021/07/04 00:54:27;;;;;;;10.84;5.19;;;;;;;;;;358339;147;857541;-60
2021/07/04 00:55:28;;;;;;;4.55;3.69;;;;;;;;;;360423;147;857332;-60
2021/07/04 00:56:32;;;;;;;4.28;3.62;;;;;;;;;;360009;148;857283;-60
2021/07/04 00:57:33;;;;;;;6.19;3.79;;;;;;;;;;357480;147;857383;-59
2021/07/04 00:58:35;;;;;;;10.44;4.11;;;;;;;;;;364275;146;857368;-59
2021/07/04 00:59:36;;;;;;;5.74;4.11;;;;;;;;;;357038;151;857351;-59
2021/07/04 01:00:40;;;;;;;4.05;3.65;;;;;;;;;;363319;147;857450;-60
2021/07/04 01:01:42;;;;;;;6.01;4.06;;;;;;;;;;363149;146;857511;-59
2021/07/04 01:02:43;;;;;;;5.12;3.69;;;;;;;;;;364073;146;859715;-59
2021/07/04 01:03:45;;;;;;;4.94;3.86;;;;;;;;;;365051;147;857241;-58
2021/07/04 01:04:46;;;;;;;4.42;3.63;;;;;;;;;;361361;147;857238;-58
2021/07/04 01:05:48;;;;;;;4.29;3.90;;;;;;;;;;363865;146;857428;-59
2021/07/04 01:06:50;;;;;;;7.19;4.07;;;;;;;19.44;100.00;64315.95;365578;147;857322;-59
2021/07/04 01:07:51;;;;;;;7.86;3.33;;;;;;;;;;364852;147;866580;-59
2021/07/04 01:08:53;;;;;;;4.88;3.00;;;;;;;;;;363315;147;864924;-59
2021/07/04 01:09:54;;;;;;;6.64;3.69;;;;;;;;;;363427;147;857222;-59
2021/07/04 01:10:56;;;;;;;5.93;3.02;;;;;;;;;;364855;147;857382;-59
2021/07/04 01:11:57;;;;;;;8.14;3.44;;;;;;;;;;363036;146;866712;-59
2021/07/04 01:12:59;;;;;;;5.04;3.68;;;;;;;;;;361805;147;857345;-59
2021/07/04 01:14:01;;;;;;;4.97;3.29;;;;;;;;;;362366;148;857205;-59
2021/07/04 01:15:03;;;;;;;6.66;3.71;;;;;;;;;;363850;147;857328;-58
2021/07/04 01:16:05;;;;;;;5.14;3.41;;;;;;;;;;364643;146;858812;-59
2021/07/04 01:17:07;;;;;;;5.58;3.71;;;;;;;;;;358195;150;857280;-59
2021/07/04 01:18:08;;;;;;;3.59;3.18;;;;;;;;;;357414;148;865722;-59
2021/07/04 01:19:10;;;;;;;4.82;3.42;;;;;;;;;;362596;147;857350;-58
2021/07/04 01:20:14;;;;;;;4.55;3.61;;;;;;;;;;360592;146;868444;-61
2021/07/04 01:21:16;;;;;;;8.73;3.78;;;;;;;;;;362342;147;857412;-61
2021/07/04 01:22:18;;;;;;;3.87;3.17;;;;;;;;;;363604;147;866224;-61
2021/07/04 01:23:19;;;;;;;4.85;3.68;;;;;;;;;;362315;146;865029;-60
2021/07/04 01:24:21;;;;;;;5.34;3.65;;;;;;;;;;363540;147;857206;-59
2021/07/04 01:25:22;;;;;;;5.27;4.05;;;;;;;;;;366126;147;857397;-60
2021/07/04 01:26:25;;;;;;;6.07;4.01;;;;;;;;;;362984;147;858951;-59
2021/07/04 01:27:26;;;;;;;4.46;3.79;;;;;;;;;;363454;146;858128;-59
2021/07/04 01:28:28;;;;;;;7.32;4.21;;;;;;;;;;361827;147;858947;-59
2021/07/04 01:29:30;;;;;;;10.33;4.71;;;;;;;;;;363504;147;857263;-59
2021/07/04 01:30:32;;;;;;;10.36;4.75;;;;;;;;;;364221;147;857338;-59
2021/07/04 01:31:34;;;;;;;22.18;5.68;;;;;;;;;;356058;150;857366;-58
2021/07/04 01:32:35;;;;;;;21.86;5.36;;;;;;;;;;358451;147;857419;-59
2021/07/04 01:33:37;;;;;;;31.70;5.30;;;;;;;;;;363901;147;858610;-59
2021/07/04 01:34:38;;;;;;;34.59;5.54;;;;;;;;;;361876;146;865939;-59
2021/07/04 01:35:40;;;;;;;6.65;4.56;;;;;;;;;;362662;147;859431;-59
2021/07/04 01:36:42;;;;;;;5.25;4.43;;;;;;;;;;363889;147;857423;-58
2021/07/04 01:37:43;;;;;;;5.62;4.62;;;;;;;;;;362976;147;857389;-58
2021/07/04 01:38:45;;;;;;;5.53;4.28;;;;;;;;;;363778;147;857357;-58
2021/07/04 01:39:47;;;;;;;5.06;4.56;;;;;;;;;;364383;147;866548;-59
2021/07/04 01:40:48;;;;;;;6.91;3.91;;;;;;;;;;362794;147;857229;-59
2021/07/04 01:41:50;;;;;;;4.58;4.13;;;;;;;;;;362155;146;866393;-58
2021/07/04 01:42:51;;;;;;;5.54;4.01;;;;;;;;;;362546;147;859788;-59
2021/07/04 01:43:53;;;;;;;7.91;4.22;;;;;;;;;;364924;147;859073;-59
2021/07/04 01:44:54;;;;;;;7.45;4.12;;;;;;;;;;362838;146;857794;-59
2021/07/04 01:45:56;;;;;;;6.09;4.01;;;;;;;;;;360937;147;857316;-59
2021/07/04 01:46:58;;;;;;;6.87;3.84;;;;;;;;;;360489;147;857227;-60
2021/07/04 01:47:59;;;;;;;5.86;4.34;;;;;;;;;;362350;147;864859;-59
2021/07/04 01:49:01;;;;;;;5.49;4.31;;;;;;;;;;364003;146;857567;-59
2021/07/04 01:50:03;;;;;;;6.05;4.24;;;;;;;;;;363788;147;857352;-59
2021/07/04 01:51:05;;;;;;;6.29;4.41;;;;;;;;;;362269;147;864771;-59
2021/07/04 01:52:06;;;;;;;6.22;4.62;;;;;;;;;;363217;146;856408;-58
2021/07/04 01:53:08;;;;;;;6.29;3.80;;;;;;;;;;363295;147;856518;-58
2021/07/04 01:54:10;;;;;;;5.18;3.90;;;;;;;;;;366438;147;856505;-59
2021/07/04 01:56:56;;;;;;;6.11;4.10;;;;;;;19.45;67.07;98891.42;372301;141;881352;-59
2021/07/04 01:57:57;;;;;;;4.80;4.29;;;;;;;19.32;67.11;98897.42;364805;146;857231;-59
2021/07/04 01:58:59;;;;;;;7.61;3.85;;;;;;;19.23;67.03;98890.11;360955;145;858351;-58
2021/07/04 02:00:08;;;;;;;5.77;3.81;;;;;;;19.23;67.03;98890.11;362696;147;866576;-58
2021/07/04 02:01:09;;;;;;;7.77;3.77;;;;;;;19.23;67.38;98897.98;359555;147;864873;-59
2021/07/04 02:02:11;;;;;;;7.41;3.99;;;;;;;19.24;67.41;98897.88;362519;146;859148;-59
2021/07/04 02:03:13;;;;;;;9.91;3.83;;;;;;;19.24;67.41;98897.88;363022;145;864818;-60
2021/07/04 02:04:15;;;;;;;4.80;3.63;;;;;;;19.26;66.68;98926.66;365716;147;857523;-59
2021/07/04 02:05:17;;;;;;;7.51;3.97;;;;;;;19.26;66.68;98926.66;364760;144;864938;-59
2021/07/04 02:06:20;;;;;;;4.54;3.94;;;;;;;19.17;66.65;98875.57;361769;145;857399;-60
2021/07/04 02:07:21;;;;;;;5.95;4.25;;;;;;;;;;361915;147;858818;-59
2021/07/04 02:08:23;;;;;;;6.47;3.96;;;;;;;;;;362202;146;866588;-59
2021/07/04 02:09:25;;;;;;;10.78;4.39;;;;;;;;;;362348;145;860041;-59
2021/07/04 02:10:29;;;;;;;9.69;3.87;;;;;;;;;;364542;145;864993;-59
2021/07/04 02:11:30;;;;;;;10.99;4.43;;;;;;;;;;362535;147;865672;-59
2021/07/04 02:12:32;;;;;;;12.97;5.74;;;;;;;;;;360626;146;865431;-59
2021/07/04 02:13:33;;;;;;;5.39;3.89;;;;;;;;;;361556;145;857333;-59
2021/07/04 02:14:35;;;;;;;6.34;4.18;;;;;;;;;;362716;147;858930;-60
2021/07/04 02:15:38;;;;;;;11.19;4.66;;;;;;;;;;358937;148;858288;-59
2021/07/04 02:16:42;;;;;;;7.03;3.92;;;;;;;;;;358220;147;858050;-59
2021/07/04 02:17:44;;;;;;;4.51;3.77;;;;;;;;;;358441;148;857342;-60
2021/07/04 02:18:46;;;;;;;8.23;3.72;;;;;;;;;;353650;150;865623;-60
2021/07/04 02:19:47;;;;;;;5.17;3.84;;;;;;;;;;358914;148;858574;-60
2021/07/04 02:20:49;;;;;;;5.78;3.86;;;;;;;;;;359265;147;857426;-59
2021/07/04 02:21:53;;;;;;;7.02;4.24;;;;;;;;;;357692;148;864876;-59
2021/07/04 02:22:54;;;;;;;6.11;3.94;;;;;;;;;;359271;148;857349;-59
2021/07/04 02:23:56;;;;;;;6.47;3.81;;;;;;;;;;359415;148;859132;-59
2021/07/04 02:24:57;;;;;;;6.24;3.74;;;;;;;;;;360580;147;858394;-59
2021/07/04 02:25:59;;;;;;;6.66;4.29;;;;;;;;;;360662;147;857354;-59
2021/07/04 02:27:01;;;;;;;6.09;3.75;;;;;;;;;;357502;148;857393;-59
2021/07/04 02:28:03;;;;;;;7.75;3.90;;;;;;;;;;359191;148;864887;-59
2021/07/04 02:29:05;;;;;;;4.32;3.80;;;;;;;;;;358771;150;858897;-60
2021/07/04 02:30:07;;;;;;;6.86;4.20;;;;;;;;;;358244;148;859073;-60
2021/07/04 02:31:09;;;;;;;6.17;3.86;;;;;;;;;;359281;148;858138;-63
2021/07/04 02:32:10;;;;;;;4.01;3.49;;;;;;;;;;358392;148;858031;-61
2021/07/04 02:33:12;;;;;;;5.67;4.01;;;;;;;;;;356793;150;865320;-61
2021/07/04 02:34:14;;;;;;;6.77;3.86;;;;;;;;;;356983;148;858041;-60
2021/07/04 02:35:16;;;;;;;7.14;3.99;;;;;;;;;;359147;148;859456;-60
2021/07/04 02:36:21;;;;;;;6.67;3.80;;;;;;;;;;359252;150;865002;-60
2021/07/04 02:37:21;;;;;;;9.90;3.61;;;;;;;;;;358003;147;857323;-61
2021/07/04 02:38:23;;;;;;;8.66;3.72;;;;;;;;;;358123;148;857555;-61
2021/07/04 02:39:24;;;;;;;7.11;4.09;;;;;;;;;;359836;149;857311;-61
2021/07/04 02:40:27;;;;;;;6.19;4.14;;;;;;;;;;358004;148;857279;-61
2021/07/04 02:41:29;;;;;;;4.98;3.87;;;;;;;;;;356302;148;857249;-61
2021/07/04 02:42:30;;;;;;;9.94;3.63;;;;;;;;;;359790;147;857328;-60
2021/07/04 02:43:32;;;;;;;9.13;5.09;;;;;;;;;;359030;150;860443;-60
2021/07/04 02:44:33;;;;;;;7.15;4.32;;;;;;;;;;357752;148;865733;-62
2021/07/04 02:45:35;;;;;;;8.95;3.76;;;;;;;;;;358019;147;857419;-60
2021/07/04 02:46:37;;;;;;;6.69;5.41;;;;;;;;;;359323;149;857201;-62
2021/07/04 02:47:39;;;;;;;8.83;4.20;;;;;;;;;;359775;148;864908;-61
2021/07/04 02:48:40;;;;;;;5.14;4.16;;;;;;;;;;359352;148;857394;-60
2021/07/04 02:49:42;;;;;;;5.86;3.93;;;;;;;;;;358630;148;860591;-59
2021/07/04 02:50:44;;;;;;;4.81;4.08;;;;;;;;;;356502;151;857974;-60
2021/07/04 02:51:46;;;;;;;11.57;4.20;;;;;;;;;;359370;148;857417;-60
2021/07/04 02:52:49;;;;;;;5.49;3.96;;;;;;;;;;358918;147;857476;-60
2021/07/04 02:53:51;;;;;;;7.11;3.92;;;;;;;;;;358214;147;858232;-59
2021/07/04 02:54:53;;;;;;;5.81;4.51;;;;;;;;;;359266;148;858109;-60
2021/07/04 02:55:54;;;;;;;6.35;4.29;;;;;;;;;;357488;148;858554;-60
2021/07/04 02:56:56;;;;;;;4.61;4.16;;;;;;;;;;358007;147;857474;-59
2021/07/04 02:57:57;;;;;;;8.82;4.66;;;;;;;;;;352317;149;864804;-59
2021/07/04 02:58:59;;;;;;;8.48;4.61;;;;;;;;;;356210;149;857221;-60
2021/07/04 03:00:01;;;;;;;14.33;4.67;;;;;;;;;;356037;149;857830;-59
2021/07/04 03:01:02;;;;;;;5.99;5.14;;;;;;;;;;357322;149;857341;-59
2021/07/04 03:02:04;;;;;;;6.91;4.66;;;;;;;;;;355867;149;857410;-60
2021/07/04 03:03:05;;;;;;;6.66;4.16;;;;;;;;;;357272;149;858910;-59
2021/07/04 03:04:07;;;;;;;4.84;4.34;;;;;;;;;;356032;149;858170;-58
2021/07/04 03:05:09;;;;;;;6.58;4.50;;;;;;;;;;354383;149;864885;-59
2021/07/04 03:06:12;;;;;;;5.89;4.79;;;;;;;;;;357202;149;857326;-59
2021/07/04 03:07:14;;;;;;;6.99;4.91;;;;;;;;;;355935;149;858720;-59
2021/07/04 03:08:15;;;;;;;6.56;5.34;;;;;;;;;;355094;150;864929;-59
2021/07/04 03:09:17;;;;;;;7.73;5.45;;;;;;;;;;354355;148;857469;-58
2021/07/04 03:10:20;;;;;;;7.91;4.60;;;;;;;;;;356109;148;858033;-62
2021/07/04 03:11:21;;;;;;;9.38;5.07;;;;;;;;;;355909;149;857226;-58
2021/07/04 03:12:23;;;;;;;7.86;5.59;;;;;;;;;;355909;149;858286;-58
2021/07/04 03:13:24;;;;;;;5.23;4.47;;;;;;;;;;354059;148;866285;-59
2021/07/04 03:14:26;;;;;;;5.96;4.86;;;;;;;;;;355239;149;860159;-58
2021/07/04 03:15:27;;;;;;;7.86;5.21;;;;;;;;;;356343;148;858742;-58
2021/07/04 03:16:31;;;;;;;6.61;5.45;;;;;;;;;;355640;150;858933;-59
2021/07/04 03:17:32;;;;;;;7.06;5.21;;;;;;;;;;358517;149;857352;-59
2021/07/04 03:18:34;;;;;;;6.97;4.99;;;;;;;;;;356271;149;858592;-59
2021/07/04 03:19:36;;;;;;;6.37;4.80;;;;;;;;;;354344;149;858199;-59
2021/07/04 03:20:38;;;;;;;7.55;5.45;;;;;;;;;;355478;149;858234;-59
2021/07/04 03:21:40;;;;;;;8.97;5.18;;;;;;;;;;357601;149;865911;-59
2021/07/04 03:22:42;;;;;;;6.09;4.67;;;;;;;;;;357396;150;857316;-59
2021/07/04 03:23:44;;;;;;;6.73;4.99;;;;;;;;;;357536;148;858350;-59
2021/07/04 03:24:45;;;;;;;9.15;4.20;;;;;;;;;;355754;149;858130;-59
2021/07/04 03:25:47;;;;;;;4.85;4.21;;;;;;;;;;355322;150;858077;-60
2021/07/04 03:26:49;;;;;;;6.68;4.84;;;;;;;;;;357364;150;857383;-61
2021/07/04 03:27:50;;;;;;;7.51;5.91;;;;;;;;;;355683;149;864878;-59
2021/07/04 03:28:51;;;;;;;8.78;5.78;;;;;;;;;;355636;149;857424;-60
2021/07/04 03:29:53;;;;;;;9.10;5.49;;;;;;;;;;357255;149;857323;-59
2021/07/04 03:30:55;;;;;;;10.18;6.23;;;;;;;;;;356043;149;857414;-61
2021/07/04 03:31:56;;;;;;;9.07;6.37;;;;;;;;;;357184;149;865125;-60
2021/07/04 03:32:58;;;;;;;8.79;5.68;;;;;;;;;;356332;150;857316;-59
2021/07/04 03:33:59;;;;;;;8.91;5.28;;;;;;;;;;355214;148;858090;-58
2021/07/04 03:35:02;;;;;;;8.36;6.05;;;;;;;;;;355854;149;857538;-59
2021/07/04 03:36:04;;;;;;;8.08;6.17;;;;;;;;;;355560;149;858732;-59
2021/07/04 03:37:06;;;;;;;9.97;5.81;;;;;;;;;;350480;151;858998;-60
2021/07/04 03:38:08;;;;;;;7.77;5.49;;;;;;;;;;350980;151;865072;-59
2021/07/04 03:39:09;;;;;;;10.23;5.66;;;;;;;;;;357561;149;858837;-59
2021/07/04 03:40:14;;;;;;;9.28;6.54;;;;;;;;;;356305;150;865904;-61
2021/07/04 03:41:16;;;;;;;8.32;6.56;;;;;;;;;;353492;149;858555;-61
2021/07/04 03:42:17;;;;;;;10.65;6.84;;;;;;;;;;355980;149;866253;-60
2021/07/04 03:43:19;;;;;;;9.31;6.21;;;;;;;;;;356776;150;857470;-60
2021/07/04 03:44:20;;;;;;;9.98;6.79;;;;;;;;;;357343;148;857441;-61
2021/07/04 03:45:22;;;;;;;8.19;6.44;;;;;;;;;;356778;149;857435;-62
2021/07/04 03:46:24;;;;;;;10.85;6.21;;;;;;;;;;353290;148;857438;-61
2021/07/04 03:47:26;;;;;;;7.53;5.71;;;;;;;;;;350951;153;857366;-60
2021/07/04 03:48:28;;;;;;;7.68;5.87;;;;;;;;;;351593;149;857349;-60
2021/07/04 03:49:29;;;;;;;8.14;5.71;;;;;;;;;;355534;149;857399;-59
2021/07/04 03:50:31;;;;;;;7.77;6.38;;;;;;;;;;355665;150;857548;-62
2021/07/04 03:51:32;;;;;;;10.06;6.34;;;;;;;;;;354830;152;857384;-61
2021/07/04 03:52:34;;;;;;;8.49;6.94;;;;;;;;;;355459;149;859057;-62
2021/07/04 03:53:35;;;;;;;10.16;6.93;;;;;;;;;;357025;149;858224;-63
2021/07/04 03:54:37;;;;;;;9.76;6.67;;;;;;;;;;357248;149;857523;-61
2021/07/04 03:55:39;;;;;;;7.96;6.84;;;;;;;;;;357298;148;860543;-62
2021/07/04 03:56:40;;;;;;;8.51;6.73;;;;;;;;;;357613;148;860321;-59
2021/07/04 03:57:42;;;;;;;8.50;6.76;;;;;;;;;;354257;149;857444;-58
2021/07/04 03:58:43;;;;;;;15.19;7.02;;;;;;;;;;356833;150;857505;-58
2021/07/04 03:59:45;;;;;;;9.86;7.16;;;;;;;;;;357485;149;857374;-58
2021/07/04 04:00:46;;;;;;;7.89;5.98;;;;;;;;;;355950;148;858377;-58
2021/07/04 04:01:48;;;;;;;7.71;6.81;;;;;;;;;;353688;150;864871;-58
2021/07/04 04:02:50;;;;;;;12.57;7.57;;;;;;;;;;354617;149;858065;-58
2021/07/04 04:03:52;;;;;;;7.69;6.79;;;;;;;;;;355549;149;858036;-58
2021/07/04 04:04:54;;;;;;;9.58;6.05;;;;;;;;;;357031;149;857355;-59
2021/07/04 04:05:57;;;;;;;8.13;6.86;;;;;;;;;;355427;150;859085;-58
2021/07/04 04:06:58;;;;;;;8.49;6.88;;;;;;;;;;356191;149;859648;-57
2021/07/04 04:08:00;;;;;;;8.45;7.12;;;;;;;;;;357865;149;860856;-56
2021/07/04 04:09:02;;;;;;;8.17;6.65;;;;;;;;;;354989;150;858476;-58
2021/07/04 04:10:06;;;;;;;7.50;6.56;;;;;;;;;;357433;149;857470;-58
2021/07/04 04:11:07;;;;;;;8.31;6.91;;;;;;;;;;348939;151;865219;-59
2021/07/04 04:12:09;;;;;;;8.01;6.84;;;;;;;;;;349312;152;857419;-59
2021/07/04 04:13:11;;;;;;;7.76;6.92;;;;;;;;;;349434;153;865638;-60
2021/07/04 04:14:12;;;;;;;9.07;6.89;;;;;;;;;;345411;152;865252;-60
2021/07/04 04:15:14;;;;;;;9.19;6.99;;;;;;;;;;343318;154;865278;-60
2021/07/04 04:16:16;;;;;;;10.13;6.59;;;;;;;;;;340709;154;857585;-59
2021/07/04 04:17:18;;;;;;;10.25;6.34;;;;;;;;;;342368;156;857477;-59
2021/07/04 04:18:19;;;;;;;8.09;6.05;;;;;;;;;;342367;154;857573;-59
2021/07/04 04:19:21;;;;;;;9.22;6.25;;;;;;;;;;342007;155;856614;-59
2021/07/04 04:20:23;;;;;;;6.34;5.72;;;;;;;;;;349187;152;859265;-60
2021/07/04 04:21:24;;;;;;;6.99;5.71;;;;;;;;;;348235;152;859040;-60
2021/07/04 04:22:26;;;;;;;7.23;6.14;;;;;;;;;;346723;153;866052;-60
2021/07/04 04:23:27;;;;;;;10.39;6.72;;;;;;;;;;345618;153;858704;-61
2021/07/04 04:24:29;;;;;;;8.61;6.47;;;;;;;;;;343012;152;857871;-63
2021/07/04 04:25:30;;;;;;;7.08;6.23;;;;;;;;;;344416;152;857169;-61
2021/07/04 04:26:32;;;;;;;10.30;6.29;;;;;;;;;;347202;153;857929;-59
2021/07/04 04:27:34;;;;;;;8.21;6.25;;;;;;;;;;344854;155;864851;-59
2021/07/04 04:28:35;;;;;;;8.18;6.70;;;;;;;;;;344849;154;857734;-58
2021/07/04 04:29:37;;;;;;;8.09;6.40;;;;;;;;;;344717;154;857273;-59
2021/07/04 04:30:38;;;;;;;7.61;6.06;;;;;;;;;;342833;154;857392;-59
2021/07/04 04:31:40;;;;;;;8.44;6.32;;;;;;;;;;347818;152;866567;-58
2021/07/04 04:32:42;;;;;;;7.67;6.53;;;;;;;;;;340133;156;859135;-58
2021/07/04 04:33:43;;;;;;;8.19;6.12;;;;;;;;;;342010;156;859200;-62
2021/07/04 04:34:45;;;;;;;6.81;6.11;;;;;;;;;;340541;154;866829;-63
2021/07/04 04:35:47;;;;;;;9.07;6.46;;;;;;;;;;346990;151;857215;-61
2021/07/04 04:36:48;;;;;;;11.56;6.27;;;;;;;;;;344386;154;859105;-62
2021/07/04 04:37:50;;;;;;;6.53;5.77;;;;;;;;;;344942;156;865161;-63
2021/07/04 04:38:51;;;;;;;9.25;6.61;;;;;;;;;;342227;154;859201;-66
2021/07/04 04:39:53;;;;;;;9.54;7.29;;;;;;;;;;344008;155;865950;-63
2021/07/04 04:40:55;;;;;;;10.35;7.58;;;;;;;;;;350223;151;859143;-60
2021/07/04 04:41:56;;;;;;;9.81;7.73;;;;;;;;;;349103;153;866093;-64
2021/07/04 04:42:58;;;;;;;9.16;7.54;;;;;;;;;;349681;151;857244;-65
2021/07/04 04:44:00;;;;;;;8.89;7.61;;;;;;;;;;349832;152;857276;-67
2021/07/04 04:45:02;;;;;;;10.81;7.99;;;;;;;;;;349462;152;865067;-66
2021/07/04 04:46:03;;;;;;;12.84;9.79;;;;;;;;;;348271;152;857468;-65
2021/07/04 04:47:05;;;;;;;12.16;9.49;;;;;;;;;;349752;152;857276;-64
2021/07/04 04:48:07;;;;;;;12.29;9.47;;;;;;;;;;350003;152;857213;-65
2021/07/04 04:49:10;;;;;;;10.26;9.07;;;;;;;;;;349312;152;866859;-66
2021/07/04 04:50:12;;;;;;;11.32;9.41;;;;;;;;;;350321;152;857314;-62
2021/07/04 04:51:13;;;;;;;12.39;9.32;;;;;;;;;;349931;151;857488;-62
2021/07/04 04:52:15;;;;;;;10.13;8.42;;;;;;;;;;349192;152;857454;-67
2021/07/04 04:53:16;;;;;;;15.16;9.50;;;;;;;;;;350075;151;857392;-64
2021/07/04 04:54:18;;;;;;;12.13;9.88;;;;;;;;;;349964;152;860505;-60
2021/07/04 04:55:19;;;;;;;14.89;10.24;;;;;;;;;;350060;152;858596;-60
2021/07/04 04:56:22;;;;;;;12.33;9.70;;;;;;;;;;348855;152;856912;-60
2021/07/04 04:57:23;;;;;;;12.91;9.71;;;;;;;;;;348223;152;859379;-61
2021/07/04 04:58:25;;;;;;;11.74;9.34;;;;;;;;;;347868;152;857430;-60
2021/07/04 04:59:26;;;;;;;12.85;10.09;;;;;;;;;;347786;152;858601;-62
2021/07/04 05:00:29;;;;;;;12.49;9.83;;;;;;;;;;348641;152;860654;-65
2021/07/04 05:01:30;;;;;;;13.29;9.21;;;;;;;;;;348400;152;857577;-59
2021/07/04 05:02:32;;;;;;;11.21;8.57;;;;;;;;;;348940;152;858666;-61
2021/07/04 05:03:33;;;;;;;12.67;9.55;;;;;;;;;;341966;154;858751;-61
2021/07/04 05:04:35;;;;;;;10.98;9.02;;;;;;;;;;349229;151;857186;-60
2021/07/04 05:05:36;;;;;;;13.21;8.93;;;;;;;;;;341416;156;857279;-61
2021/07/04 05:06:41;;;;;;;13.42;9.19;;;;;;;;;;349050;154;857437;-61
2021/07/04 05:07:43;;;;;;;11.86;9.59;;;;;;;;;;348191;152;865044;-62
2021/07/04 05:08:44;;;;;;;13.08;9.46;;;;;;;;;;349067;151;857576;-62
2021/07/04 05:09:47;;;;;;;10.21;9.17;;;;;;;;;;350753;151;864919;-61
2021/07/04 05:10:49;;;;;;;11.36;9.12;;;;;;;;;;346737;152;857246;-61
2021/07/04 05:11:51;;;;;;;11.45;9.24;;;;;;;;;;350514;151;857263;-60
2021/07/04 05:12:52;;;;;;;11.57;8.54;;;;;;;;;;348719;152;858290;-61
2021/07/04 05:13:54;;;;;;;13.07;9.00;;;;;;;;;;349490;152;857864;-62
2021/07/04 05:14:56;;;;;;;12.02;9.05;;;;;;;;;;349388;152;859309;-60
2021/07/04 05:15:57;;;;;;;13.66;8.37;;;;;;;;;;341605;154;864842;-61
2021/07/04 05:16:59;;;;;;;11.10;8.23;;;;;;;;;;341076;155;858239;-59
2021/07/04 05:18:04;;;;;;;12.66;9.26;;;;;;;;;;340838;154;857421;-60
2021/07/04 05:19:06;;;;;;;10.24;9.03;;;;;;;;;;339605;156;859129;-61
2021/07/04 05:20:10;;;;;;;11.38;9.47;;;;;;;;;;347474;151;857348;-61
2021/07/04 05:21:11;;;;;;;12.92;10.01;;;;;;;;;;348237;154;857906;-62
2021/07/04 05:22:13;;;;;;;13.54;10.20;;;;;;;;;;348853;152;858170;-61
2021/07/04 05:23:14;;;;;;;15.94;10.34;;;;;;;;;;349181;151;857487;-60
2021/07/04 05:24:16;;;;;;;12.29;9.85;;;;;;;;;;346512;152;857362;-62
2021/07/04 05:25:18;;;;;;;13.12;9.70;;;;;;;;;;347618;152;857910;-61
2021/07/04 05:26:21;;;;;;;13.72;10.40;;;;;;;;;;347631;151;857391;-65
2021/07/04 05:27:23;;;;;;;11.37;9.60;;;;;;;;;;349632;151;858500;-62
2021/07/04 05:28:25;;;;;;;14.76;9.94;;;;;;;;;;349204;151;857397;-62
2021/07/04 05:29:27;;;;;;;12.35;10.03;;;;;;;;;;347338;151;857357;-61
2021/07/04 05:30:30;;;;;;;14.58;10.14;;;;;;;;;;349086;151;857380;-61
2021/07/04 05:31:32;;;;;;;13.49;10.44;;;;;;;;;;353093;151;857335;-61
2021/07/04 05:32:34;;;;;;;15.12;9.74;;;;;;;;;;355808;149;858931;-59
2021/07/04 05:33:35;;;;;;;12.66;9.58;;;;;;;;;;354789;149;864950;-67
2021/07/04 05:34:37;;;;;;;12.74;10.26;;;;;;;;;;352444;149;857190;-63
2021/07/04 05:35:39;;;;;;;14.02;9.86;;;;;;;;;;356058;151;866896;-64
2021/07/04 05:36:46;;;;;;;15.14;10.08;;;;;;;;;;357013;148;858098;-65
2021/07/04 05:37:47;;;;;;;16.16;10.03;;;;;;;;;;355136;142;857297;-65
2021/07/04 05:38:48;;;;;;;13.77;10.21;;;;;;;;;;357492;150;857184;-62
2021/07/04 05:39:50;;;;;;;15.20;10.40;;;;;;;;;;355108;150;865066;-62
2021/07/04 05:40:52;;;;;;;13.99;9.74;;;;;;;;;;355023;148;860558;-61
2021/07/04 05:41:53;;;;;;;12.04;9.46;;;;;;;;;;355470;150;865369;-63
2021/07/04 05:42:55;;;;;;;16.64;9.50;;;;;;;;;;357155;150;864898;-61
2021/07/04 05:43:56;;;;;;;12.29;9.85;;;;;;;;;;355295;147;857167;-63
2021/07/04 05:44:58;;;;;;;12.61;9.53;;;;;;;;;;355343;147;857194;-64
2021/07/04 05:46:00;;;;;;;14.66;9.35;;;;;;;;;;356837;150;857291;-63
2021/07/04 05:47:01;;;;;;;14.01;9.75;;;;;;;;;;355954;148;866863;-62
2021/07/04 05:48:04;;;;;;;13.15;9.79;;;;;;;;;;354175;147;866775;-62
2021/07/04 05:49:05;;;;;;;14.49;10.04;;;;;;;;;;354326;150;858420;-62
2021/07/04 05:50:08;;;;;;;13.39;9.38;;;;;;;;;;355475;150;858507;-61
2021/07/04 05:51:09;;;;;;;12.63;9.57;;;;;;;;;;355752;147;857289;-61
2021/07/04 05:52:11;;;;;;;12.06;8.64;;;;;;;;;;357766;150;859050;-61
2021/07/04 05:53:13;;;;;;;14.90;10.52;;;;;;;;;;355631;150;864940;-59
2021/07/04 05:54:18;;;;;;;14.13;9.65;;;;;;;;;;342960;154;857420;-61
2021/07/04 05:55:19;;;;;;;14.05;10.31;;;;;;;;;;344232;153;857338;-60
2021/07/04 05:56:21;;;;;;;17.31;10.47;;;;;;;;;;344286;153;868649;-60
2021/07/04 05:57:23;;;;;;;22.48;12.16;;;;;;;;;;343545;153;857346;-61
2021/07/04 05:58:24;;;;;;;16.14;10.69;;;;;;;;;;344440;154;857268;-59
2021/07/04 05:59:26;;;;;;;19.79;11.05;;;;;;;;;;344188;155;866708;-58
2021/07/04 06:00:28;;;;;;;17.37;11.57;;;;;;;;;;344177;153;857382;-62
2021/07/04 06:01:30;;;;;;;15.49;10.39;;;;;;;;;;343523;153;859568;-59
2021/07/04 06:02:31;;;;;;;15.24;10.40;;;;;;;;;;344391;154;865072;-59